Gila Bend, Arizona
Current Conditions -  °F | °C
As of 7:55 PM on Tuesday 21 Oct 2014 (Local Time) from KGXF Reporting Station
Clear Clear  
Wind Chill: 77°   Ceiling: Unl
Heat Index: 78°   Visibility: 10mi
Dew Point: 50°   Wind: 3mph
Humidity: 39%   Direction: 130°SE
Pressure: 29.8"   Gusts: NA
Location:  32.95°N, 112.72°W
Report Text: KGXF 220255Z 13003KT 10SM CLR 25/10 A2980 RMK SLP082 52009
Loading
Personal Weather Stations






























Interactive Weather Map New forecast layout! Learn more

10-Day Weather Forecast

Advertisements
Track Severe Weather on mobile